createdAt,value
2023-05-15T00:00:18.006Z,3.80
2023-05-15T00:02:48.181Z,5.68
2023-05-15T00:05:18.219Z,3.63
2023-05-15T00:07:47.724Z,3.85
2023-05-15T00:10:17.655Z,4.10
2023-05-15T00:12:47.718Z,3.38
2023-05-15T00:15:25.928Z,3.78
2023-05-15T00:17:56.059Z,5.47
2023-05-15T00:20:26.156Z,3.67
2023-05-15T00:22:55.772Z,4.00
2023-05-15T00:25:25.496Z,3.67
2023-05-15T00:27:55.363Z,4.70
2023-05-15T00:30:23.821Z,3.75
2023-05-15T00:32:53.098Z,3.55
2023-05-15T00:35:22.092Z,3.45
2023-05-15T00:37:56.508Z,3.75
2023-05-15T00:40:27.972Z,4.35
2023-05-15T00:42:57.887Z,3.67
2023-05-15T00:45:27.569Z,4.53
2023-05-15T00:48:00.504Z,3.80
2023-05-15T00:50:31.159Z,3.97
2023-05-15T00:53:01.527Z,4.00
2023-05-15T00:55:35.151Z,4.50
2023-05-15T00:58:04.817Z,3.78
2023-05-15T01:00:35.316Z,4.10
2023-05-15T01:03:06.857Z,4.70
2023-05-15T01:05:36.870Z,4.20
2023-05-15T01:08:09.340Z,4.10
2023-05-15T01:10:40.050Z,4.00
2023-05-15T01:13:10.806Z,4.93
2023-05-15T01:15:43.421Z,3.95
2023-05-15T01:18:15.264Z,3.72
2023-05-15T01:21:04.397Z,4.38
2023-05-15T01:24:03.513Z,3.63
2023-05-15T01:26:53.244Z,3.92
2023-05-15T01:29:26.908Z,4.43
2023-05-15T01:32:00.890Z,3.70
2023-05-15T01:34:42.213Z,5.10
2023-05-15T01:37:17.153Z,4.03
2023-05-15T01:39:51.224Z,4.55
2023-05-15T01:42:29.088Z,4.40
2023-05-15T01:44:59.128Z,3.95
2023-05-15T01:47:40.558Z,4.13
2023-05-15T01:50:14.962Z,4.28
2023-05-15T01:52:52.289Z,4.35
2023-05-15T01:55:23.552Z,5.47
2023-05-15T01:57:53.701Z,6.43
2023-05-15T02:00:23.645Z,4.47
2023-05-15T02:02:54.527Z,5.38
2023-05-15T02:05:25.125Z,3.78
2023-05-15T02:07:54.950Z,4.50
2023-05-15T02:10:26.393Z,4.47
2023-05-15T02:12:58.254Z,5.40
2023-05-15T02:15:29.957Z,6.43
2023-05-15T02:18:00.666Z,4.28
2023-05-15T02:20:31.413Z,3.90
2023-05-15T02:23:00.701Z,4.07
2023-05-15T02:25:45.260Z,4.57
2023-05-15T02:28:25.892Z,4.28
2023-05-15T02:30:59.555Z,4.20
2023-05-15T02:33:39.582Z,4.20
2023-05-15T02:36:10.997Z,4.25
2023-05-15T02:38:48.063Z,5.78
2023-05-15T02:41:18.245Z,4.82
2023-05-15T02:43:51.306Z,5.05
2023-05-15T02:46:23.363Z,4.38
2023-05-15T02:48:53.471Z,4.60
2023-05-15T02:51:22.918Z,4.78
2023-05-15T02:53:54.109Z,3.78
2023-05-15T02:56:23.435Z,4.45
2023-05-15T02:58:55.277Z,4.22
2023-05-15T03:01:24.182Z,3.80
2023-05-15T03:03:53.508Z,5.35
2023-05-15T03:06:23.248Z,4.75
2023-05-15T03:08:53.761Z,3.97
2023-05-15T03:11:23.219Z,3.90
2023-05-15T03:13:52.826Z,3.90
2023-05-15T03:16:21.502Z,5.53
2023-05-15T03:18:50.243Z,3.83
2023-05-15T03:21:20.591Z,4.38
2023-05-15T03:23:51.591Z,4.32
2023-05-15T03:26:21.257Z,3.80
2023-05-15T03:28:50.499Z,4.07
2023-05-15T03:31:19.725Z,4.32
2023-05-15T03:33:50.480Z,4.00
2023-05-15T03:36:23.568Z,4.53
2023-05-15T03:38:53.884Z,4.15
2023-05-15T03:41:23.235Z,3.97
2023-05-15T03:43:51.877Z,4.15
2023-05-15T03:46:21.612Z,5.30
2023-05-15T03:48:51.507Z,5.18
2023-05-15T03:51:21.912Z,4.38
2023-05-15T03:53:55.701Z,4.75
2023-05-15T03:56:25.405Z,3.88
2023-05-15T03:58:57.827Z,4.50
2023-05-15T04:01:27.618Z,5.13
2023-05-15T04:03:56.702Z,5.03
2023-05-15T04:06:28.049Z,4.00
2023-05-15T04:08:58.051Z,5.30
2023-05-15T04:11:29.267Z,5.93
2023-05-15T04:14:29.885Z,3.90
2023-05-15T04:17:41.647Z,4.85
2023-05-15T04:20:41.063Z,6.25
2023-05-15T04:23:21.194Z,4.43
2023-05-15T04:25:57.714Z,3.67
2023-05-15T04:28:31.057Z,5.10
2023-05-15T04:31:05.505Z,4.28
2023-05-15T04:33:40.994Z,4.13
2023-05-15T04:36:14.019Z,4.00
2023-05-15T04:38:57.555Z,4.18
2023-05-15T04:41:34.897Z,4.50
2023-05-15T04:44:16.923Z,4.90
2023-05-15T04:46:54.637Z,3.75
2023-05-15T04:49:24.731Z,4.05
2023-05-15T04:51:54.895Z,3.83
2023-05-15T04:54:35.700Z,4.60
2023-05-15T04:57:13.151Z,4.65
2023-05-15T04:59:52.537Z,4.15
2023-05-15T05:02:33.834Z,3.88
2023-05-15T05:05:12.626Z,4.20
2023-05-15T05:07:54.680Z,3.70
2023-05-15T05:10:25.514Z,4.20
2023-05-15T05:13:00.806Z,3.90
2023-05-15T05:15:39.359Z,3.92
2023-05-15T05:18:13.553Z,5.28
2023-05-15T05:20:57.321Z,4.18
2023-05-15T05:23:33.301Z,4.30
2023-05-15T05:26:09.607Z,3.90
2023-05-15T05:28:41.437Z,6.22
2023-05-15T05:31:18.151Z,3.92
2023-05-15T05:34:04.173Z,4.88
2023-05-15T05:36:43.904Z,4.30
2023-05-15T05:39:29.063Z,3.33
2023-05-15T05:42:00.742Z,5.38
2023-05-15T05:44:34.412Z,4.05
2023-05-15T05:47:07.113Z,4.35
2023-05-15T05:49:52.441Z,4.55
2023-05-15T05:52:25.946Z,4.57
2023-05-15T05:55:00.905Z,3.70
2023-05-15T05:57:37.350Z,2.90
2023-05-15T06:00:22.270Z,3.42
2023-05-15T06:06:01.953Z,4.13
2023-05-15T06:08:42.681Z,2.92
2023-05-15T06:11:51.216Z,2.92
2023-05-15T06:14:47.143Z,2.97
2023-05-15T06:17:57.660Z,3.72
2023-05-15T06:20:41.413Z,2.50
2023-05-15T06:23:12.456Z,3.40
2023-05-15T06:25:57.169Z,2.85
2023-05-15T06:28:31.883Z,2.85
2023-05-15T06:31:06.491Z,4.63
2023-05-15T06:33:54.021Z,2.88
2023-05-15T06:36:26.243Z,2.80
2023-05-15T06:38:58.388Z,2.63
2023-05-15T06:41:35.372Z,2.60
2023-05-15T06:44:06.811Z,2.60
2023-05-15T06:46:41.685Z,3.08
2023-05-15T06:49:26.689Z,2.55
2023-05-15T06:51:58.858Z,2.70
2023-05-15T06:54:32.620Z,3.25
2023-05-15T06:57:05.218Z,2.65
2023-05-15T06:59:40.072Z,2.90
2023-05-15T07:02:10.395Z,2.47
2023-05-15T07:04:48.619Z,2.60
2023-05-15T07:07:21.111Z,2.47
2023-05-15T07:09:53.598Z,2.40
2023-05-15T07:12:24.363Z,3.08
2023-05-15T07:14:56.016Z,2.20
2023-05-15T07:17:31.584Z,2.42
2023-05-15T07:44:32.394Z,2.83
2023-05-15T07:57:27.997Z,2.65
2023-05-15T08:00:33.679Z,2.60
2023-05-15T08:09:19.932Z,3.58
2023-05-15T08:19:46.219Z,2.53
2023-05-15T08:24:00.503Z,3.40
2023-05-15T08:25:57.481Z,4.90
2023-05-15T08:28:38.092Z,3.00
2023-05-15T08:31:26.550Z,3.30
2023-05-15T08:34:00.797Z,2.42
2023-05-15T08:36:40.667Z,3.05
2023-05-15T08:39:25.399Z,3.35
2023-05-15T08:42:25.110Z,2.83
2023-05-15T08:45:01.746Z,2.83
2023-05-15T08:47:53.017Z,3.10
2023-05-15T08:51:22.145Z,2.47
2023-05-15T08:54:14.452Z,2.70
2023-05-15T08:58:30.560Z,2.50
2023-05-15T09:01:16.878Z,2.58
2023-05-15T09:04:22.015Z,2.80
2023-05-15T09:07:09.931Z,2.60
2023-05-15T09:14:05.706Z,5.22
2023-05-15T09:16:47.700Z,4.68
2023-05-15T09:20:35.169Z,3.13
2023-05-15T09:24:28.327Z,2.75
2023-05-15T09:27:20.954Z,2.95
2023-05-15T09:30:42.528Z,2.95
2023-05-15T09:33:53.862Z,2.80
2023-05-15T09:36:44.480Z,3.10
2023-05-15T09:39:58.691Z,2.88
2023-05-15T09:42:47.904Z,2.65
2023-05-15T09:45:59.233Z,4.47
2023-05-15T09:50:19.099Z,2.65
2023-05-15T10:08:28.195Z,4.05
2023-05-15T10:11:52.343Z,2.63
2023-05-15T10:15:09.121Z,2.97
2023-05-15T10:17:51.981Z,2.35
2023-05-15T10:20:38.510Z,2.92
2023-05-15T10:23:43.646Z,2.50
2023-05-15T10:32:41.615Z,2.20
2023-05-15T10:43:34.457Z,2.75
2023-05-15T10:50:32.281Z,3.08
2023-05-15T11:08:36.463Z,2.22
2023-05-15T11:27:12.319Z,2.40
2023-05-15T11:30:43.087Z,2.35
2023-05-15T11:39:05.569Z,2.47
2023-05-15T11:42:30.187Z,2.17
2023-05-15T11:45:21.350Z,2.10
2023-05-15T11:48:26.407Z,2.60
2023-05-15T11:51:35.021Z,4.38
2023-05-15T11:54:30.889Z,2.60
2023-05-15T11:57:58.231Z,2.45
2023-05-15T12:16:19.311Z,2.22
2023-05-15T12:19:30.647Z,2.75
2023-05-15T12:23:05.443Z,2.25
2023-05-15T12:26:33.215Z,3.00
2023-05-15T12:29:12.116Z,2.40
2023-05-15T12:42:53.970Z,2.60
2023-05-15T12:51:42.508Z,3.20
2023-05-15T12:54:26.214Z,2.60
2023-05-15T12:57:07.252Z,2.45
2023-05-15T13:00:14.507Z,3.20
2023-05-15T13:03:18.171Z,3.42
2023-05-15T13:06:41.879Z,2.30
2023-05-15T13:09:52.878Z,2.65
2023-05-15T13:16:57.250Z,2.15
2023-05-15T13:28:12.965Z,2.33
2023-05-15T13:31:10.014Z,2.55
2023-05-15T13:33:57.767Z,3.45
2023-05-15T13:37:10.072Z,2.30
2023-05-15T13:39:49.497Z,2.20
2023-05-15T13:42:26.577Z,2.83
2023-05-15T13:45:01.145Z,2.38
2023-05-15T13:47:42.838Z,2.40
2023-05-15T13:50:25.159Z,2.63
2023-05-15T13:53:04.804Z,2.38
2023-05-15T13:55:34.658Z,2.45
2023-05-15T13:58:07.005Z,2.60
2023-05-15T14:00:40.348Z,2.72
2023-05-15T14:03:32.738Z,2.40
2023-05-15T14:06:38.229Z,3.03
2023-05-15T14:09:46.042Z,2.28
2023-05-15T14:12:22.575Z,3.70
2023-05-15T14:15:01.957Z,3.00
2023-05-15T14:17:54.098Z,2.88
2023-05-15T14:20:48.938Z,2.33
2023-05-15T14:26:09.745Z,2.17
2023-05-15T14:28:58.689Z,2.47
2023-05-15T14:31:38.883Z,2.15
2023-05-15T14:34:22.437Z,2.47
2023-05-15T14:37:12.712Z,2.20
2023-05-15T14:40:29.173Z,2.67
2023-05-15T14:43:26.672Z,2.58
2023-05-15T14:46:30.006Z,2.37
2023-05-15T14:50:10.356Z,2.15
2023-05-15T14:53:13.525Z,2.90
2023-05-15T14:57:24.238Z,2.20
2023-05-15T15:00:03.419Z,2.50
2023-05-15T15:02:38.499Z,3.58
2023-05-15T15:05:22.061Z,2.33
2023-05-15T15:08:36.247Z,2.65
2023-05-15T15:11:19.220Z,2.63
2023-05-15T15:13:52.467Z,2.50
2023-05-15T15:16:24.209Z,2.45
2023-05-15T15:19:08.203Z,3.25
2023-05-15T15:22:08.405Z,2.15
2023-05-15T15:24:49.379Z,3.28
2023-05-15T15:27:20.534Z,2.72
2023-05-15T15:30:25.688Z,2.30
2023-05-15T15:33:22.201Z,2.55
2023-05-15T15:52:20.691Z,2.38
2023-05-15T15:58:56.609Z,2.20
2023-05-15T16:02:06.599Z,2.30
2023-05-15T16:06:06.422Z,2.40
2023-05-15T16:20:29.693Z,2.17
2023-05-15T16:27:08.548Z,2.85
2023-05-15T16:30:18.647Z,2.97
2023-05-15T16:33:01.860Z,3.03
2023-05-15T16:35:43.125Z,2.30
2023-05-15T16:38:38.245Z,2.72
2023-05-15T16:41:50.941Z,3.28
2023-05-15T16:45:26.981Z,3.05
2023-05-15T16:49:05.931Z,2.30
2023-05-15T16:51:46.081Z,3.40
2023-05-15T16:54:53.795Z,2.40
2023-05-15T16:57:53.595Z,2.40
2023-05-15T17:00:38.834Z,3.28
2023-05-15T17:03:20.301Z,2.22
2023-05-15T17:06:24.433Z,2.33
2023-05-15T17:09:16.142Z,2.40
2023-05-15T17:11:56.879Z,2.40
2023-05-15T17:15:21.433Z,2.50
2023-05-15T17:17:57.266Z,2.20
2023-05-15T17:20:28.210Z,2.53
2023-05-15T17:24:00.873Z,2.55
2023-05-15T17:29:54.755Z,2.30
2023-05-15T17:32:29.732Z,2.28
2023-05-15T17:35:08.722Z,2.47
2023-05-15T17:38:01.262Z,2.33
2023-05-15T17:40:30.802Z,3.00
2023-05-15T17:43:22.141Z,3.85
2023-05-15T17:45:54.554Z,2.70
2023-05-15T17:48:27.050Z,2.85
2023-05-15T17:51:13.462Z,2.40
2023-05-15T17:53:48.472Z,2.05
2023-05-15T17:56:21.985Z,2.97
2023-05-15T17:58:54.136Z,2.40
2023-05-15T18:01:26.814Z,2.83
2023-05-15T18:04:03.359Z,2.30
2023-05-15T18:06:38.748Z,2.75
2023-05-15T18:09:09.583Z,2.75
2023-05-15T18:11:40.950Z,2.90
2023-05-15T18:14:46.333Z,2.58
2023-05-15T18:17:25.019Z,2.53
2023-05-15T18:19:59.111Z,2.58
2023-05-15T18:22:30.855Z,2.83
2023-05-15T18:25:01.771Z,2.95
2023-05-15T18:27:35.351Z,2.50
2023-05-15T18:30:06.556Z,2.55
2023-05-15T18:32:42.056Z,4.05
2023-05-15T18:35:21.248Z,2.67
2023-05-15T18:38:02.707Z,3.40
2023-05-15T18:40:49.965Z,3.08
2023-05-15T18:43:26.457Z,2.42
2023-05-15T18:46:05.503Z,3.63
2023-05-15T18:48:37.027Z,3.75
2023-05-15T18:51:11.207Z,3.17
2023-05-15T18:53:47.713Z,2.40
2023-05-15T18:56:24.305Z,2.50
2023-05-15T18:59:00.225Z,3.75
2023-05-15T19:01:58.959Z,2.60
2023-05-15T19:04:52.079Z,2.75
2023-05-15T19:07:42.104Z,2.75
2023-05-15T19:10:44.725Z,3.65
2023-05-15T19:14:25.220Z,3.10
2023-05-15T19:17:20.396Z,3.08
2023-05-15T19:20:05.147Z,3.00
2023-05-15T19:25:36.111Z,2.60
2023-05-15T19:28:21.485Z,2.88
2023-05-15T19:30:53.312Z,4.63
2023-05-15T19:38:00.810Z,2.75
2023-05-15T19:43:25.740Z,3.25
2023-05-15T19:46:05.733Z,2.75
2023-05-15T19:48:53.133Z,3.25
2023-05-15T19:54:34.249Z,3.08
2023-05-15T19:57:10.718Z,4.10
2023-05-15T19:59:51.058Z,2.53
2023-05-15T20:02:25.224Z,3.97
2023-05-15T20:08:31.776Z,4.93
2023-05-15T20:11:22.278Z,2.88
2023-05-15T20:15:26.649Z,2.65
2023-05-15T20:18:25.432Z,3.25
2023-05-15T20:22:20.749Z,3.33
2023-05-15T20:25:17.001Z,3.92
2023-05-15T20:28:12.843Z,2.67
2023-05-15T20:31:04.998Z,4.20
2023-05-15T20:33:41.602Z,2.88
2023-05-15T20:36:50.110Z,3.45
2023-05-15T20:39:37.973Z,3.33
2023-05-15T20:45:26.910Z,3.17
2023-05-15T20:48:04.489Z,2.75
2023-05-15T20:50:58.077Z,2.80
2023-05-15T20:54:21.194Z,4.07
2023-05-15T20:57:03.340Z,3.30
2023-05-15T20:59:37.652Z,4.30
2023-05-15T21:02:19.096Z,4.20
2023-05-15T21:04:50.754Z,3.65
2023-05-15T21:07:42.356Z,3.28
2023-05-15T21:10:17.422Z,3.53
2023-05-15T21:12:49.995Z,3.15
2023-05-15T21:15:21.008Z,3.85
2023-05-15T21:17:58.585Z,4.70
2023-05-15T21:20:38.697Z,3.00
2023-05-15T21:23:15.349Z,3.33
2023-05-15T21:25:50.082Z,3.70
2023-05-15T21:28:22.657Z,3.55
2023-05-15T21:31:01.945Z,4.68
2023-05-15T21:33:40.638Z,5.22
2023-05-15T21:36:15.250Z,3.50
2023-05-15T21:38:50.854Z,3.30
2023-05-15T21:41:22.837Z,4.78
2023-05-15T21:43:55.670Z,4.55
2023-05-15T21:46:26.317Z,3.88
2023-05-15T21:48:56.587Z,3.47
2023-05-15T21:51:30.095Z,4.13
2023-05-15T21:54:29.218Z,6.30
2023-05-15T21:57:04.609Z,5.35
2023-05-15T21:59:49.627Z,4.47
2023-05-15T22:02:37.888Z,3.70
2023-05-15T22:08:31.675Z,4.20
2023-05-15T22:11:27.263Z,3.30
2023-05-15T22:14:35.061Z,3.00
2023-05-15T22:17:57.724Z,3.63
2023-05-15T22:20:34.588Z,3.92
2023-05-15T22:23:19.252Z,3.58
2023-05-15T22:26:03.208Z,3.83
2023-05-15T22:29:09.816Z,4.97
2023-05-15T22:31:53.132Z,6.40
2023-05-15T22:34:31.443Z,3.10
2023-05-15T22:37:29.107Z,3.65
2023-05-15T22:40:06.566Z,3.17
2023-05-15T22:42:39.282Z,3.05
2023-05-15T22:45:17.298Z,4.32
2023-05-15T22:47:50.464Z,3.10
2023-05-15T22:50:19.372Z,4.65
2023-05-15T22:52:52.831Z,4.03
2023-05-15T22:55:22.778Z,3.20
2023-05-15T22:57:57.924Z,2.92
2023-05-15T23:00:28.760Z,3.15
2023-05-15T23:03:04.600Z,3.92
2023-05-15T23:05:42.527Z,3.00
2023-05-15T23:08:49.106Z,3.30
2023-05-15T23:11:53.329Z,4.85
2023-05-15T23:14:29.386Z,3.70
2023-05-15T23:17:08.394Z,4.07
2023-05-15T23:19:44.809Z,4.85
2023-05-15T23:22:18.899Z,3.00
2023-05-15T23:24:56.926Z,2.88
2023-05-15T23:27:30.300Z,3.00
2023-05-15T23:30:05.307Z,3.63
2023-05-15T23:32:43.252Z,3.03
2023-05-15T23:35:16.322Z,3.50
2023-05-15T23:37:46.721Z,5.03
2023-05-15T23:40:16.180Z,3.13
2023-05-15T23:42:45.407Z,3.00
2023-05-15T23:45:17.397Z,3.13
2023-05-15T23:47:47.470Z,4.80
2023-05-15T23:50:16.923Z,2.85
2023-05-15T23:52:46.328Z,3.10
2023-05-15T23:55:15.696Z,3.28
2023-05-15T23:57:44.640Z,3.67
